Time;durP1;ratioP1;P1;durP2;ratioP2;P2;SDS_P1;SDS_P2;PMS_P1;PMS_P2;Temp;Humidity;BMP_temperature;BMP_pressure;BME280_temperature;BME280_humidity;BME280_pressure;Samples;Min_cycle;Max_cycle;Signal;HPM_P1;HPM_P2
2024/01/07 00:02:03;;;;;;;18.53;14.10;;;;;;;;;;5325011;28;20423;-83
2024/01/07 00:04:34;;;;;;;16.10;12.40;;;;;;;;;;5325922;28;20355;-83
2024/01/07 00:07:05;;;;;;;18.60;13.83;;;;;;;;;;5325734;28;20015;-83
2024/01/07 00:09:36;;;;;;;18.10;13.20;;;;;;;;;;5324833;28;20358;-83
2024/01/07 00:12:08;;;;;;;17.53;14.13;;;;;;;;;;5325480;28;20168;-84
2024/01/07 00:14:39;;;;;;;20.57;14.47;;;;;;;;;;5325077;28;20580;-83
2024/01/07 00:17:10;;;;;;;19.53;14.37;;;;;;;;;;5325641;28;20076;-83
2024/01/07 00:19:41;;;;;;;22.57;16.07;;;;;;;;;;5325665;28;20464;-83
2024/01/07 00:22:12;;;;;;;22.00;15.23;;;;;;;;;;5324831;28;20035;-83
2024/01/07 00:24:44;;;;;;;21.30;14.93;;;;;;;;;;5325743;28;20027;-83
2024/01/07 00:27:15;;;;;;;21.23;16.13;;;;;;;;;;5325483;28;20523;-83
2024/01/07 00:29:46;;;;;;;21.63;15.03;;;;;;;;;;5324426;28;20015;-83
2024/01/07 00:32:17;;;;;;;16.17;13.63;;;;;;;;;;5325203;28;20097;-83
2024/01/07 00:34:48;;;;;;;19.97;14.70;;;;;;;;;;5325218;28;20477;-83
2024/01/07 00:37:19;;;;;;;20.86;15.60;;;;;;;;;;5325379;28;20072;-83
2024/01/07 00:39:51;;;;;;;20.77;15.27;;;;;;;;;;5325552;28;20018;-83
2024/01/07 00:42:22;;;;;;;24.97;17.17;;;;;;;;;;5324692;28;20125;-84
2024/01/07 00:44:53;;;;;;;26.67;16.67;;;;;;;;;;5324385;28;20031;-83
2024/01/07 00:47:24;;;;;;;20.20;15.07;;;;;;;;;;5324458;28;20502;-83
2024/01/07 00:49:55;;;;;;;19.27;15.43;;;;;;;;;;5324055;28;20047;-83
2024/01/07 00:52:26;;;;;;;18.53;14.20;;;;;;;;;;5324883;28;20549;-83
2024/01/07 00:54:58;;;;;;;17.97;13.50;;;;;;;;;;5325311;28;20045;-84
2024/01/07 00:57:29;;;;;;;15.77;13.03;;;;;;;;;;5324090;28;20016;-83
2024/01/07 01:00:04;;;;;;;17.83;13.37;;;;;;;;;;5324655;28;20054;-84
2024/01/07 01:02:36;;;;;;;17.50;13.10;;;;;;;;;;5324508;28;20031;-83
2024/01/07 01:05:08;;;;;;;14.60;11.87;;;;;;;;;;5323846;28;20374;-83
2024/01/07 01:07:39;;;;;;;13.97;11.90;;;;;;;;;;5324329;28;20027;-83
2024/01/07 01:10:10;;;;;;;13.77;11.63;;;;;;;;;;5324437;28;20470;-84
2024/01/07 01:12:41;;;;;;;13.13;11.00;;;;;;;;;;5323859;28;20027;-84
2024/01/07 01:15:12;;;;;;;13.40;11.73;;;;;;;;;;5324696;28;20174;-84
2024/01/07 01:17:44;;;;;;;14.37;12.23;;;;;;;;;;5324080;28;20026;-83
2024/01/07 01:20:15;;;;;;;14.10;11.90;;;;;;;;;;5323985;28;20036;-83
2024/01/07 01:22:46;;;;;;;12.10;10.50;;;;;;;;;;5324237;28;20072;-83
2024/01/07 01:25:17;;;;;;;13.43;11.77;;;;;;;;;;5323492;28;20390;-83
2024/01/07 01:27:48;;;;;;;13.40;11.50;;;;;;;;;;5324149;28;20019;-83
2024/01/07 01:30:20;;;;;;;14.10;12.17;;;;;;;;;;5323995;28;20466;-84
2024/01/07 01:32:51;;;;;;;11.90;10.17;;;;;;;;;;5323368;28;20024;-84
2024/01/07 01:35:22;;;;;;;13.90;12.00;;;;;;;;;;5323583;28;20026;-84
2024/01/07 01:37:54;;;;;;;14.93;11.77;;;;;;;;;;5324448;28;20051;-84
2024/01/07 01:40:25;;;;;;;14.47;12.50;;;;;;;;;;5323102;28;20024;-84
2024/01/07 01:42:56;;;;;;;14.57;11.83;;;;;;;;;;5324087;28;20011;-84
2024/01/07 01:45:28;;;;;;;15.80;12.93;;;;;;;;;;5323873;28;20115;-84
2024/01/07 01:47:59;;;;;;;17.10;13.57;;;;;;;;;;5323144;28;20397;-84
2024/01/07 01:50:30;;;;;;;18.27;13.63;;;;;;;;;;5323803;28;20097;-84
2024/01/07 01:53:02;;;;;;;18.57;14.93;;;;;;;;;;5322986;28;20031;-84
2024/01/07 01:55:33;;;;;;;21.03;16.50;;;;;;;;;;5323806;28;20024;-83
2024/01/07 01:58:05;;;;;;;19.27;15.00;;;;;;;;;;5323694;28;20026;-83
2024/01/07 02:00:36;;;;;;;21.77;16.53;;;;;;;;;;5322885;28;20020;-83
2024/01/07 02:03:08;;;;;;;20.70;15.57;;;;;;;;;;5323929;28;20448;-84
2024/01/07 02:05:39;;;;;;;20.47;15.90;;;;;;;;;;5323690;28;20027;-82
2024/01/07 02:08:11;;;;;;;18.13;15.18;;;;;;;;;;5322848;28;20054;-84
2024/01/07 02:10:42;;;;;;;19.73;15.13;;;;;;;;;;5323677;28;20474;-83
2024/01/07 02:13:13;;;;;;;19.50;15.40;;;;;;;;;;5323985;28;20417;-83
2024/01/07 02:15:44;;;;;;;20.27;14.97;;;;;;;;;;5323399;28;20016;-83
2024/01/07 02:18:15;;;;;;;19.23;14.70;;;;;;;;;;5323788;28;20106;-84
2024/01/07 02:20:47;;;;;;;20.40;15.87;;;;;;;;;;5323517;28;20031;-83
2024/01/07 02:23:18;;;;;;;21.92;16.20;;;;;;;;;;5322650;28;20455;-84
2024/01/07 02:25:49;;;;;;;20.90;16.60;;;;;;;;;;5323618;28;20364;-84
2024/01/07 02:28:20;;;;;;;22.70;17.30;;;;;;;;;;5322592;28;20020;-84
2024/01/07 02:30:51;;;;;;;21.57;16.80;;;;;;;;;;5323841;28;20386;-84
2024/01/07 02:33:23;;;;;;;21.40;16.33;;;;;;;;;;5325426;28;20402;-84
2024/01/07 02:35:54;;;;;;;22.03;16.13;;;;;;;;;;5327050;28;20114;-84
2024/01/07 02:38:25;;;;;;;23.23;16.40;;;;;;;;;;5327479;28;20036;-84
2024/01/07 02:40:56;;;;;;;20.43;14.67;;;;;;;;;;5327625;28;20062;-84
2024/01/07 02:43:27;;;;;;;20.93;15.87;;;;;;;;;;5326507;28;20099;-84
2024/01/07 02:45:58;;;;;;;21.37;15.23;;;;;;;;;;5327567;28;20478;-84
2024/01/07 02:48:30;;;;;;;22.93;15.83;;;;;;;;;;5327738;28;20036;-84
2024/01/07 02:51:03;;;;;;;24.17;16.43;;;;;;;;;;5326471;28;20055;-84
2024/01/07 02:53:34;;;;;;;24.73;16.57;;;;;;;;;;5327305;28;20031;-84
2024/01/07 02:56:05;;;;;;;22.60;15.77;;;;;;;;;;5327128;28;20035;-84
2024/01/07 02:58:36;;;;;;;26.43;18.33;;;;;;;;;;5326537;28;20489;-84
2024/01/07 03:01:08;;;;;;;27.30;18.40;;;;;;;;;;5327181;28;20098;-84
2024/01/07 03:03:39;;;;;;;28.33;18.67;;;;;;;;;;5326125;28;20027;-84
2024/01/07 03:06:10;;;;;;;32.00;20.03;;;;;;;;;;5326911;28;20023;-83
2024/01/07 03:08:42;;;;;;;34.33;19.30;;;;;;;;;;5326735;28;20561;-84
2024/01/07 03:11:14;;;;;;;33.03;21.13;;;;;;;;;;5326200;28;20033;-84
2024/01/07 03:13:45;;;;;;;32.70;22.07;;;;;;;;;;5326893;28;20015;-84
2024/01/07 03:16:20;;;;;;;32.33;22.73;;;;;;;;;;5326860;28;20986;-84
2024/01/07 03:18:51;;;;;;;37.33;22.90;;;;;;;;;;5326294;28;20551;-84
2024/01/07 03:21:23;;;;;;;33.33;21.70;;;;;;;;;;5328517;28;20016;-84
2024/01/07 03:23:54;;;;;;;33.83;21.83;;;;;;;;;;5329720;28;20011;-84
2024/01/07 03:26:29;;;;;;;34.43;23.23;;;;;;;;;;5325930;28;20015;-84
2024/01/07 03:29:01;;;;;;;35.63;23.30;;;;;;;;;;5326753;28;20094;-84
2024/01/07 03:31:33;;;;;;;33.33;23.03;;;;;;;;;;5325765;28;20055;-84
2024/01/07 03:34:04;;;;;;;41.17;26.03;;;;;;;;;;5326480;28;20062;-83
2024/01/07 03:36:35;;;;;;;37.37;24.83;;;;;;;;;;5326376;28;20049;-84
2024/01/07 03:39:06;;;;;;;36.20;23.23;;;;;;;;;;5325852;28;20450;-84
2024/01/07 03:41:38;;;;;;;39.47;24.30;;;;;;;;;;5326406;28;20068;-84
2024/01/07 03:44:09;;;;;;;32.77;22.13;;;;;;;;;;5326043;28;20024;-84
2024/01/07 03:46:40;;;;;;;37.03;24.67;;;;;;;;;;5325470;28;20492;-84
2024/01/07 03:49:11;;;;;;;40.13;24.90;;;;;;;;;;5326555;28;20031;-84
2024/01/07 03:51:42;;;;;;;34.40;23.40;;;;;;;;;;5326102;28;20043;-84
2024/01/07 03:54:14;;;;;;;34.27;23.57;;;;;;;;;;5325639;28;20027;-84
2024/01/07 03:56:45;;;;;;;28.17;19.93;;;;;;;;;;5326101;28;20019;-84
2024/01/07 03:59:16;;;;;;;28.74;20.84;;;;;;;;;;5326255;28;20023;-84
2024/01/07 04:01:47;;;;;;;28.73;20.27;;;;;;;;;;5325421;28;20024;-84
2024/01/07 04:04:18;;;;;;;30.88;22.48;;;;;;;;;;5326067;28;20024;-84
2024/01/07 04:06:49;;;;;;;29.47;21.30;;;;;;;;;;5325009;28;20027;-84
2024/01/07 04:09:21;;;;;;;25.97;20.23;;;;;;;;;;5325907;28;20046;-84
2024/01/07 04:11:52;;;;;;;29.57;21.13;;;;;;;;;;5326142;28;20074;-84
2024/01/07 04:14:23;;;;;;;24.70;19.23;;;;;;;;;;5324756;28;20116;-84
2024/01/07 04:16:54;;;;;;;26.93;19.23;;;;;;;;;;5325938;28;20019;-84
2024/01/07 04:19:25;;;;;;;26.20;18.73;;;;;;;;;;5325284;28;20107;-84
2024/01/07 04:21:57;;;;;;;24.90;19.10;;;;;;;;;;5324739;28;20467;-84
2024/01/07 04:24:28;;;;;;;24.93;18.90;;;;;;;;;;5325754;28;20442;-84
2024/01/07 04:26:59;;;;;;;24.60;17.70;;;;;;;;;;5325730;28;20103;-84
2024/01/07 04:29:30;;;;;;;22.43;17.07;;;;;;;;;;5324793;28;20012;-84
2024/01/07 04:32:01;;;;;;;23.90;18.47;;;;;;;;;;5325629;28;20054;-84
2024/01/07 04:34:33;;;;;;;25.27;18.80;;;;;;;;;;5325343;28;20087;-84
2024/01/07 04:37:04;;;;;;;23.27;17.53;;;;;;;;;;5324811;28;20096;-84
2024/01/07 04:39:35;;;;;;;23.20;16.63;;;;;;;;;;5325386;28;20051;-84
2024/01/07 04:42:06;;;;;;;24.30;17.23;;;;;;;;;;5324661;28;20081;-83
2024/01/07 04:44:37;;;;;;;26.50;18.27;;;;;;;;;;5325204;28;20028;-84
2024/01/07 04:47:25;;;;;;;25.63;19.00;;;;;;;;;;5325335;28;20080;-83
2024/01/07 04:49:57;;;;;;;23.77;17.10;;;;;;;;;;5324270;28;20455;-84
2024/01/07 04:52:28;;;;;;;23.40;17.30;;;;;;;;;;5325126;28;20055;-84
2024/01/07 04:54:59;;;;;;;23.03;15.37;;;;;;;;;;5324218;28;20011;-85
2024/01/07 04:57:30;;;;;;;23.93;16.63;;;;;;;;;;5323919;28;20023;-84
2024/01/07 05:00:02;;;;;;;23.30;16.40;;;;;;;;;;5325118;28;20355;-84
2024/01/07 05:02:33;;;;;;;23.93;18.40;;;;;;;;;;5324785;28;20102;-84
2024/01/07 05:05:04;;;;;;;23.37;15.57;;;;;;;;;;5323967;28;20020;-84
2024/01/07 05:07:37;;;;;;;21.00;15.60;;;;;;;;;;5324741;28;20020;-84
2024/01/07 05:10:08;;;;;;;20.03;14.47;;;;;;;;;;5323958;28;20012;-83
2024/01/07 05:12:39;;;;;;;19.90;15.13;;;;;;;;;;5324612;28;20065;-84
2024/01/07 05:15:10;;;;;;;19.00;14.40;;;;;;;;;;5324806;28;20011;-84
2024/01/07 05:17:41;;;;;;;18.63;14.77;;;;;;;;;;5323826;28;20027;-84
2024/01/07 05:20:15;;;;;;;20.40;14.80;;;;;;;;;;5324269;28;20098;-84
2024/01/07 05:22:46;;;;;;;16.73;12.80;;;;;;;;;;5324487;28;20015;-84
2024/01/07 05:25:17;;;;;;;18.10;11.87;;;;;;;;;;5323647;28;20019;-83
2024/01/07 05:27:48;;;;;;;14.60;11.20;;;;;;;;;;5324562;28;20028;-84
2024/01/07 05:30:19;;;;;;;16.40;12.13;;;;;;;;;;5324362;28;20099;-85
2024/01/07 05:32:51;;;;;;;13.00;10.50;;;;;;;;;;5323470;28;20050;-83
2024/01/07 05:35:22;;;;;;;13.47;10.87;;;;;;;;;;5323816;28;20027;-83
2024/01/07 05:37:53;;;;;;;12.80;10.63;;;;;;;;;;5324026;28;20024;-83
2024/01/07 05:40:24;;;;;;;11.53;9.43;;;;;;;;;;5323704;28;20455;-83
2024/01/07 05:42:55;;;;;;;14.00;9.80;;;;;;;;;;5324540;28;20019;-83
2024/01/07 05:45:26;;;;;;;11.83;10.00;;;;;;;;;;5322979;28;20024;-83
2024/01/07 05:47:58;;;;;;;12.63;9.43;;;;;;;;;;5324251;28;20076;-83
2024/01/07 05:50:29;;;;;;;10.37;7.97;;;;;;;;;;5323784;28;20109;-83
2024/01/07 05:53:00;;;;;;;10.50;8.87;;;;;;;;;;5323246;28;20023;-83
2024/01/07 05:55:31;;;;;;;11.73;8.40;;;;;;;;;;5323882;28;20007;-83
2024/01/07 05:58:02;;;;;;;9.70;8.60;;;;;;;;;;5324167;28;20030;-83
2024/01/07 06:00:33;;;;;;;11.27;8.37;;;;;;;;;;5323350;28;20036;-83
2024/01/07 06:03:06;;;;;;;10.37;8.77;;;;;;;;;;5324532;28;20027;-83
2024/01/07 06:05:38;;;;;;;12.07;9.70;;;;;;;;;;5325025;28;20020;-83
2024/01/07 06:08:10;;;;;;;12.07;10.07;;;;;;;;;;5326412;28;20379;-83
2024/01/07 06:10:41;;;;;;;11.43;9.37;;;;;;;;;;5328085;28;20046;-83
2024/01/07 06:13:12;;;;;;;10.87;8.90;;;;;;;;;;5327127;28;20015;-83
2024/01/07 06:15:43;;;;;;;10.20;8.57;;;;;;;;;;5327813;28;20106;-83
2024/01/07 06:18:14;;;;;;;9.90;7.63;;;;;;;;;;5327992;28;20493;-84
2024/01/07 06:20:45;;;;;;;9.54;7.92;;;;;;;;;;5327294;28;20062;-84
2024/01/07 06:23:17;;;;;;;9.80;8.03;;;;;;;;;;5328119;28;20023;-83
2024/01/07 06:25:49;;;;;;;8.83;7.77;;;;;;;;;;5327934;28;20019;-84
2024/01/07 06:28:20;;;;;;;9.97;7.60;;;;;;;;;;5327143;28;20057;-84
2024/01/07 06:30:52;;;;;;;8.43;6.43;;;;;;;;;;5327850;28;20039;-83
2024/01/07 06:33:23;;;;;;;9.67;7.43;;;;;;;;;;5327477;28;20504;-84
2024/01/07 06:35:54;;;;;;;8.60;7.60;;;;;;;;;;5327279;28;20416;-84
2024/01/07 06:38:25;;;;;;;9.13;7.07;;;;;;;;;;5327287;28;20095;-84
2024/01/07 06:41:00;;;;;;;8.63;7.07;;;;;;;;;;5327741;28;20023;-84
2024/01/07 06:43:32;;;;;;;8.70;7.27;;;;;;;;;;5326655;28;20020;-84
2024/01/07 06:46:04;;;;;;;11.77;8.80;;;;;;;;;;5327579;28;20458;-83
2024/01/07 06:48:35;;;;;;;11.50;9.90;;;;;;;;;;5326686;28;20031;-84
2024/01/07 06:51:06;;;;;;;11.03;9.67;;;;;;;;;;5327192;28;20055;-84
2024/01/07 06:53:37;;;;;;;13.90;10.80;;;;;;;;;;5327024;28;20125;-84
2024/01/07 06:56:09;;;;;;;14.20;11.50;;;;;;;;;;5326158;28;20012;-84
2024/01/07 06:58:40;;;;;;;16.20;11.57;;;;;;;;;;5327068;28;20035;-84
2024/01/07 07:01:11;;;;;;;14.43;11.20;;;;;;;;;;5327381;28;20015;-84
2024/01/07 07:03:42;;;;;;;13.67;11.47;;;;;;;;;;5326416;28;20047;-83
2024/01/07 07:06:13;;;;;;;15.90;12.47;;;;;;;;;;5327188;28;20102;-83
2024/01/07 07:08:45;;;;;;;14.13;12.43;;;;;;;;;;5326918;28;20016;-83
2024/01/07 07:11:16;;;;;;;15.50;13.03;;;;;;;;;;5325978;28;20474;-83
2024/01/07 07:13:47;;;;;;;14.73;12.33;;;;;;;;;;5327059;28;20108;-84
2024/01/07 07:16:19;;;;;;;18.40;13.43;;;;;;;;;;5327051;28;20042;-84
2024/01/07 07:18:50;;;;;;;16.63;14.10;;;;;;;;;;5325473;28;20103;-84
2024/01/07 07:21:21;;;;;;;19.43;13.93;;;;;;;;;;5327038;28;20027;-83
2024/01/07 07:23:52;;;;;;;17.83;13.70;;;;;;;;;;5326593;28;20016;-83
2024/01/07 07:26:23;;;;;;;16.43;12.97;;;;;;;;;;5326432;28;20031;-83
2024/01/07 07:28:55;;;;;;;15.93;11.70;;;;;;;;;;5326910;28;20027;-83
2024/01/07 07:31:26;;;;;;;14.83;12.60;;;;;;;;;;5325255;28;20500;-83
2024/01/07 07:33:57;;;;;;;14.97;12.27;;;;;;;;;;5326725;28;20020;-83
2024/01/07 07:36:28;;;;;;;15.03;12.10;;;;;;;;;;5326435;28;20026;-82
2024/01/07 07:38:59;;;;;;;14.37;12.43;;;;;;;;;;5325805;28;20467;-83
2024/01/07 07:41:31;;;;;;;15.33;12.73;;;;;;;;;;5326536;28;20035;-83
2024/01/07 07:44:02;;;;;;;13.70;11.87;;;;;;;;;;5326309;28;20100;-82
2024/01/07 07:46:33;;;;;;;13.13;11.50;;;;;;;;;;5325997;28;20020;-82
2024/01/07 07:49:04;;;;;;;13.97;11.17;;;;;;;;;;5326588;28;20031;-82
2024/01/07 07:51:36;;;;;;;13.03;9.10;;;;;;;;;;5325148;28;20047;-82
2024/01/07 07:54:07;;;;;;;10.77;8.73;;;;;;;;;;5326396;28;20022;-83
2024/01/07 07:56:38;;;;;;;9.63;8.57;;;;;;;;;;5326505;28;20016;-83
2024/01/07 07:59:09;;;;;;;10.27;8.07;;;;;;;;;;5326131;28;20021;-83
2024/01/07 08:01:40;;;;;;;11.87;8.20;;;;;;;;;;5327448;28;20047;-83
2024/01/07 08:04:12;;;;;;;12.87;8.37;;;;;;;;;;5327772;28;20016;-83
2024/01/07 08:06:44;;;;;;;10.53;8.10;;;;;;;;;;5330468;28;20026;-83
2024/01/07 08:09:16;;;;;;;11.93;8.83;;;;;;;;;;5328150;28;20028;-83
2024/01/07 08:11:47;;;;;;;11.87;8.17;;;;;;;;;;5327864;28;20053;-83
2024/01/07 08:14:19;;;;;;;11.03;8.13;;;;;;;;;;5327111;28;20015;-83
2024/01/07 08:16:50;;;;;;;12.57;8.77;;;;;;;;;;5327519;28;20076;-83
2024/01/07 08:19:21;;;;;;;14.10;8.63;;;;;;;;;;5327121;28;20038;-83
2024/01/07 08:21:52;;;;;;;10.10;8.50;;;;;;;;;;5327829;28;20024;-83
2024/01/07 08:24:23;;;;;;;11.63;8.50;;;;;;;;;;5329520;28;20460;-84
2024/01/07 08:26:55;;;;;;;10.73;8.03;;;;;;;;;;5326553;28;20023;-83
2024/01/07 08:29:26;;;;;;;8.97;7.90;;;;;;;;;;5326687;28;20012;-84
2024/01/07 08:31:58;;;;;;;10.93;8.30;;;;;;;;;;5325848;28;20031;-84
2024/01/07 08:34:29;;;;;;;10.63;7.87;;;;;;;;;;5326571;28;20064;-83
2024/01/07 08:37:00;;;;;;;11.73;9.13;;;;;;;;;;5330094;28;20023;-84
2024/01/07 08:39:31;;;;;;;11.40;8.07;;;;;;;;;;5331608;28;20413;-83
2024/01/07 08:42:03;;;;;;;11.30;7.80;;;;;;;;;;5336567;27;20072;-82
2024/01/07 08:44:35;;;;;;;10.10;8.80;;;;;;;;;;5349978;27;20474;-83
2024/01/07 08:47:06;;;;;;;10.40;8.10;;;;;;;;;;5328669;27;20069;-83
2024/01/07 08:49:38;;;;;;;10.43;7.80;;;;;;;;;;5324421;28;20127;-83
2024/01/07 08:52:09;;;;;;;11.87;8.33;;;;;;;;;;5325117;28;20027;-84
2024/01/07 08:54:41;;;;;;;10.33;7.90;;;;;;;;;;5343578;27;20023;-83
2024/01/07 08:57:12;;;;;;;12.23;8.13;;;;;;;;;;5346859;27;20023;-84
2024/01/07 08:59:43;;;;;;;10.57;7.03;;;;;;;;;;5348067;27;20436;-82
2024/01/07 09:02:14;;;;;;;8.47;5.90;;;;;;;;;;5347339;27;20058;-84
2024/01/07 09:04:45;;;;;;;9.03;7.27;;;;;;;;;;5348891;27;20023;-84
2024/01/07 09:07:17;;;;;;;8.70;7.00;;;;;;;;;;5349914;27;20354;-85
2024/01/07 09:09:48;;;;;;;7.53;6.57;;;;;;;;;;5348640;27;20040;-83
2024/01/07 09:12:20;;;;;;;8.57;6.37;;;;;;;;;;5349864;27;20019;-85
2024/01/07 09:14:51;;;;;;;8.60;6.87;;;;;;;;;;5349159;27;20045;-85
2024/01/07 09:17:22;;;;;;;9.20;6.70;;;;;;;;;;5352203;27;20382;-86
2024/01/07 09:19:53;;;;;;;7.00;5.97;;;;;;;;;;5352444;27;20039;-87
2024/01/07 09:22:24;;;;;;;7.87;6.60;;;;;;;;;;5348964;27;20040;-84
2024/01/07 09:24:56;;;;;;;7.30;5.93;;;;;;;;;;5348724;27;20030;-84
2024/01/07 09:27:27;;;;;;;7.80;5.47;;;;;;;;;;5350934;27;20019;-82
2024/01/07 09:29:58;;;;;;;6.53;5.10;;;;;;;;;;5352421;27;20090;-84
2024/01/07 09:32:30;;;;;;;6.80;5.30;;;;;;;;;;5348002;27;20047;-85
2024/01/07 09:35:01;;;;;;;7.00;5.10;;;;;;;;;;5348429;27;20019;-85
2024/01/07 09:37:32;;;;;;;5.87;5.17;;;;;;;;;;5346282;27;20023;-86
2024/01/07 09:40:05;;;;;;;6.70;5.57;;;;;;;;;;5346741;27;20389;-86
2024/01/07 09:42:36;;;;;;;6.87;6.13;;;;;;;;;;5347036;27;20046;-82
2024/01/07 09:45:10;;;;;;;6.27;4.83;;;;;;;;;;5346421;27;20042;-85
2024/01/07 09:47:43;;;;;;;6.30;5.27;;;;;;;;;;5348792;27;20023;-83
2024/01/07 09:50:16;;;;;;;6.87;5.77;;;;;;;;;;5349758;27;20138;-87
2024/01/07 09:52:48;;;;;;;6.47;5.03;;;;;;;;;;5353459;27;20075;-83
2024/01/07 09:55:26;;;;;;;6.47;5.10;;;;;;;;;;5351367;27;20485;-83
2024/01/07 09:57:57;;;;;;;6.40;5.17;;;;;;;;;;5330720;28;20057;-83
2024/01/07 10:00:29;;;;;;;5.47;4.93;;;;;;;;;;5346649;28;20020;-84
2024/01/07 10:03:00;;;;;;;5.77;4.80;;;;;;;;;;5345584;28;20027;-84
2024/01/07 10:05:31;;;;;;;6.80;5.50;;;;;;;;;;5344575;28;20131;-83
2024/01/07 10:08:03;;;;;;;5.83;4.90;;;;;;;;;;5345925;28;20026;-86
2024/01/07 10:10:35;;;;;;;5.87;4.30;;;;;;;;;;5345567;28;20027;-82
2024/01/07 10:13:08;;;;;;;6.13;4.53;;;;;;;;;;5345007;28;20114;-80
2024/01/07 10:15:39;;;;;;;7.50;4.93;;;;;;;;;;5346482;28;20058;-82
2024/01/07 10:18:10;;;;;;;7.47;5.03;;;;;;;;;;5345756;28;20054;-82
2024/01/07 10:20:41;;;;;;;6.37;5.00;;;;;;;;;;5344426;28;20023;-82
2024/01/07 10:23:18;;;;;;;5.83;5.00;;;;;;;;;;5345565;28;20026;-83
2024/01/07 10:25:49;;;;;;;7.40;5.20;;;;;;;;;;5345322;28;20490;-82
2024/01/07 10:28:21;;;;;;;6.87;5.20;;;;;;;;;;5344777;28;20031;-82
2024/01/07 10:30:53;;;;;;;6.37;5.03;;;;;;;;;;5346044;28;20031;-81
2024/01/07 10:33:24;;;;;;;6.77;5.77;;;;;;;;;;5344936;28;20035;-81
2024/01/07 10:36:16;;;;;;;7.30;5.97;;;;;;;;;;5344924;28;20098;-83
2024/01/07 10:38:47;;;;;;;5.97;4.93;;;;;;;;;;5344274;28;20110;-82
2024/01/07 10:41:19;;;;;;;6.40;5.13;;;;;;;;;;5343881;28;20114;-78
2024/01/07 10:43:50;;;;;;;5.83;5.03;;;;;;;;;;5345319;28;20526;-81
2024/01/07 10:46:21;;;;;;;5.87;5.23;;;;;;;;;;5344754;28;20492;-82
2024/01/07 10:48:53;;;;;;;5.47;4.90;;;;;;;;;;5344452;28;20019;-83
2024/01/07 10:51:24;;;;;;;6.17;4.20;;;;;;;;;;5344184;28;20161;-83
2024/01/07 10:53:55;;;;;;;6.87;5.77;;;;;;;;;;5346810;27;20026;-82
2024/01/07 10:56:36;;;;;;;7.30;5.53;;;;;;;;;;5348239;27;20023;-83
2024/01/07 10:59:08;;;;;;;6.40;5.67;;;;;;;;;;5349046;27;20347;-84
2024/01/07 11:01:39;;;;;;;6.23;5.63;;;;;;;;;;5348326;27;20067;-83
2024/01/07 11:04:29;;;;;;;7.10;5.97;;;;;;;;;;5348917;27;20015;-84
2024/01/07 11:07:15;;;;;;;6.43;5.47;;;;;;;;;;5348806;27;20020;-84
2024/01/07 11:09:55;;;;;;;5.93;5.17;;;;;;;;;;5347924;27;20034;-84
2024/01/07 11:12:26;;;;;;;5.90;5.30;;;;;;;;;;5348298;27;20541;-83
2024/01/07 11:14:58;;;;;;;6.57;5.57;;;;;;;;;;5348827;27;20023;-82
2024/01/07 11:17:36;;;;;;;6.90;5.10;;;;;;;;;;5347848;27;20551;-83
2024/01/07 11:20:12;;;;;;;8.93;6.33;;;;;;;;;;5348408;27;20022;-83
2024/01/07 11:22:43;;;;;;;6.07;5.07;;;;;;;;;;5347701;27;20385;-82
2024/01/07 11:25:31;;;;;;;6.57;5.40;;;;;;;;;;5348642;27;20034;-82
2024/01/07 11:28:02;;;;;;;8.10;5.83;;;;;;;;;;5348324;27;20422;-83
2024/01/07 11:30:38;;;;;;;6.60;5.40;;;;;;;;;;5347133;27;20058;-82
2024/01/07 11:33:12;;;;;;;8.33;5.50;;;;;;;;;;5348041;27;20026;-83
2024/01/07 11:35:53;;;;;;;7.53;5.80;;;;;;;;;;5347909;27;20075;-83
2024/01/07 11:38:24;;;;;;;6.87;5.47;;;;;;;;;;5347070;27;20019;-83
2024/01/07 11:40:56;;;;;;;6.40;5.40;;;;;;;;;;5352158;27;20019;-84
2024/01/07 11:43:28;;;;;;;6.77;5.40;;;;;;;;;;5351612;27;20437;-82
2024/01/07 11:45:59;;;;;;;8.87;6.07;;;;;;;;;;5349002;27;20403;-82
2024/01/07 11:48:31;;;;;;;7.40;5.40;;;;;;;;;;5348091;27;20019;-84
2024/01/07 11:51:02;;;;;;;10.57;5.80;;;;;;;;;;5347206;27;20047;-83
2024/01/07 11:53:33;;;;;;;8.00;5.33;;;;;;;;;;5348211;27;20383;-85
2024/01/07 11:56:04;;;;;;;8.87;5.60;;;;;;;;;;5348130;27;20451;-83
2024/01/07 11:58:36;;;;;;;7.63;5.37;;;;;;;;;;5346909;27;20079;-79
2024/01/07 12:01:07;;;;;;;7.37;6.17;;;;;;;;;;5347509;27;20106;-81
2024/01/07 12:03:38;;;;;;;8.97;6.07;;;;;;;;;;5347365;27;20034;-83
2024/01/07 12:06:13;;;;;;;7.10;5.37;;;;;;;;;;5346672;27;20389;-83
2024/01/07 12:08:44;;;;;;;8.83;6.00;;;;;;;;;;5347527;27;20600;-80
2024/01/07 12:11:16;;;;;;;10.40;5.97;;;;;;;;;;5347196;27;20164;-80
2024/01/07 12:13:49;;;;;;;7.33;5.67;;;;;;;;;;5347003;27;20008;-85
2024/01/07 12:16:20;;;;;;;7.60;5.73;;;;;;;;;;5346747;27;20015;-81
2024/01/07 12:18:51;;;;;;;6.93;4.50;;;;;;;;;;5346302;27;20020;-81
2024/01/07 12:21:23;;;;;;;5.67;3.83;;;;;;;;;;5347356;27;20463;-84
2024/01/07 12:23:55;;;;;;;4.90;3.73;;;;;;;;;;5347086;27;20050;-82
2024/01/07 12:26:27;;;;;;;6.20;3.80;;;;;;;;;;5345774;27;20414;-81
2024/01/07 12:29:00;;;;;;;5.40;3.10;;;;;;;;;;5346899;27;20103;-82
2024/01/07 12:31:31;;;;;;;3.17;2.77;;;;;;;;;;5324362;27;20024;-82
2024/01/07 12:34:02;;;;;;;4.60;2.93;;;;;;;;;;5324604;28;20015;-80
2024/01/07 12:36:34;;;;;;;3.37;2.60;;;;;;;;;;5325377;28;20024;-81
2024/01/07 12:39:06;;;;;;;4.60;2.67;;;;;;;;;;5325136;28;20080;-83
2024/01/07 12:41:37;;;;;;;6.10;2.87;;;;;;;;;;5324196;28;20107;-81
2024/01/07 12:44:08;;;;;;;3.83;2.40;;;;;;;;;;5325134;28;20098;-80
2024/01/07 12:46:40;;;;;;;3.30;2.50;;;;;;;;;;5324790;28;20031;-80
2024/01/07 12:49:11;;;;;;;3.97;2.70;;;;;;;;;;5324198;28;20462;-80
2024/01/07 12:51:42;;;;;;;4.20;2.80;;;;;;;;;;5324476;28;20051;-82
2024/01/07 12:54:13;;;;;;;4.13;3.00;;;;;;;;;;5324295;28;20023;-82
2024/01/07 12:56:44;;;;;;;5.13;3.47;;;;;;;;;;5325035;28;20134;-80
2024/01/07 12:59:15;;;;;;;5.93;4.00;;;;;;;;;;5324492;28;20363;-82
2024/01/07 13:01:47;;;;;;;3.90;2.93;;;;;;;;;;5323598;28;20088;-79
2024/01/07 13:04:19;;;;;;;3.27;2.73;;;;;;;;;;5324334;28;20135;-81
2024/01/07 13:06:50;;;;;;;4.47;2.47;;;;;;;;;;5324550;28;20111;-82
2024/01/07 13:09:21;;;;;;;3.07;2.53;;;;;;;;;;5323508;28;20193;-80
2024/01/07 13:11:53;;;;;;;3.10;2.40;;;;;;;;;;5324733;28;20032;-82
2024/01/07 13:14:24;;;;;;;4.10;2.30;;;;;;;;;;5323888;28;20391;-80
2024/01/07 13:16:55;;;;;;;2.73;1.70;;;;;;;;;;5323190;28;20031;-82
2024/01/07 13:19:26;;;;;;;2.80;2.00;;;;;;;;;;5323637;28;20071;-78
2024/01/07 13:22:01;;;;;;;3.43;2.33;;;;;;;;;;5324279;28;20016;-84
2024/01/07 13:24:32;;;;;;;2.67;2.30;;;;;;;;;;5323759;28;20016;-81
2024/01/07 13:27:03;;;;;;;3.27;2.37;;;;;;;;;;5325400;28;20045;-81
2024/01/07 13:29:35;;;;;;;4.10;2.40;;;;;;;;;;5324129;28;20020;-80
2024/01/07 13:32:06;;;;;;;2.73;2.00;;;;;;;;;;5327707;28;20032;-81
2024/01/07 13:34:37;;;;;;;2.70;1.80;;;;;;;;;;5324110;28;20024;-81
2024/01/07 13:37:08;;;;;;;2.60;1.47;;;;;;;;;;5323174;28;20015;-80
2024/01/07 13:39:39;;;;;;;3.06;1.04;;;;;;;;;;5323916;28;20023;-81
2024/01/07 13:42:11;;;;;;;2.67;1.20;;;;;;;;;;5323499;28;20058;-81
2024/01/07 13:44:46;;;;;;;1.87;1.17;;;;;;;;;;5322884;28;20478;-80
2024/01/07 13:47:17;;;;;;;3.13;1.00;;;;;;;;;;5324082;28;20443;-81
2024/01/07 13:49:48;;;;;;;3.80;0.90;;;;;;;;;;5323861;28;20044;-80
2024/01/07 13:52:19;;;;;;;1.57;0.90;;;;;;;;;;5321924;28;20128;-83
2024/01/07 13:54:51;;;;;;;3.20;1.13;;;;;;;;;;5327120;27;20469;-79
2024/01/07 13:57:24;;;;;;;2.77;0.93;;;;;;;;;;5320891;28;20058;-81
2024/01/07 13:59:56;;;;;;;2.40;0.73;;;;;;;;;;5321887;28;20557;-81
2024/01/07 14:02:27;;;;;;;1.80;0.70;;;;;;;;;;5317894;28;20027;-80
2024/01/07 14:04:58;;;;;;;2.07;0.80;;;;;;;;;;5322019;28;20023;-78
2024/01/07 14:07:29;;;;;;;1.77;0.73;;;;;;;;;;5319614;28;20436;-81
2024/01/07 14:10:03;;;;;;;3.37;0.70;;;;;;;;;;5320878;28;20031;-82
2024/01/07 14:12:34;;;;;;;1.90;0.70;;;;;;;;;;5319653;28;20024;-80
2024/01/07 14:15:06;;;;;;;3.40;0.77;;;;;;;;;;5322012;28;20462;-80
2024/01/07 14:17:37;;;;;;;1.63;0.63;;;;;;;;;;5321430;28;20026;-80
2024/01/07 14:20:08;;;;;;;2.57;0.57;;;;;;;;;;5321899;28;20015;-80
2024/01/07 14:22:39;;;;;;;1.80;0.90;;;;;;;;;;5322243;28;20486;-82
2024/01/07 14:25:11;;;;;;;2.07;0.70;;;;;;;;;;5321897;28;20165;-81
2024/01/07 14:27:43;;;;;;;1.07;0.60;;;;;;;;;;5321854;28;20023;-82
2024/01/07 14:30:14;;;;;;;1.10;0.50;;;;;;;;;;5327086;28;20508;-86
2024/01/07 14:32:45;;;;;;;1.90;0.60;;;;;;;;;;5325835;28;20039;-82
2024/01/07 14:35:17;;;;;;;1.17;0.70;;;;;;;;;;5330017;27;20485;-82
2024/01/07 14:37:48;;;;;;;2.10;0.60;;;;;;;;;;5327298;28;20419;-82
2024/01/07 14:40:19;;;;;;;2.33;0.80;;;;;;;;;;5326458;28;20098;-83
2024/01/07 14:42:52;;;;;;;1.30;0.53;;;;;;;;;;5326621;28;20445;-83
2024/01/07 14:45:25;;;;;;;1.13;0.50;;;;;;;;;;5326523;28;20031;-81
2024/01/07 14:47:56;;;;;;;2.30;0.60;;;;;;;;;;5326194;28;20023;-84
2024/01/07 14:50:27;;;;;;;2.07;0.50;;;;;;;;;;5327227;28;20047;-86
2024/01/07 14:52:59;;;;;;;1.47;0.60;;;;;;;;;;5327151;28;20020;-83
2024/01/07 14:55:30;;;;;;;1.23;0.40;;;;;;;;;;5325554;28;20008;-83